createdAt,value
2022-08-28T00:02:48.328Z,15.62
2022-08-28T00:07:50.986Z,15.69
2022-08-28T00:12:58.449Z,15.48
2022-08-28T00:18:01.145Z,15.22
2022-08-28T00:23:04.598Z,15.28
2022-08-28T00:28:10.071Z,15.32
2022-08-28T00:33:27.492Z,15.50
2022-08-28T00:38:31.130Z,15.57
2022-08-28T00:43:42.726Z,15.81
2022-08-28T00:48:45.200Z,15.53
2022-08-28T00:53:47.430Z,15.34
2022-08-28T00:58:52.321Z,15.60
2022-08-28T01:03:54.633Z,15.68
2022-08-28T01:08:57.373Z,15.38
2022-08-28T01:14:03.045Z,15.34
2022-08-28T01:19:13.493Z,15.48
2022-08-28T01:24:18.989Z,15.44
2022-08-28T01:29:21.433Z,15.57
2022-08-28T01:34:24.218Z,15.75
2022-08-28T01:39:27.649Z,15.26
2022-08-28T01:44:30.047Z,14.88
2022-08-28T01:49:32.322Z,14.91
2022-08-28T01:54:34.470Z,14.80
2022-08-28T01:59:38.454Z,14.70
2022-08-28T02:04:47.579Z,14.91
2022-08-28T02:09:50.640Z,15.17
2022-08-28T02:14:53.327Z,14.91
2022-08-28T02:19:55.715Z,14.50
2022-08-28T02:24:58.112Z,14.66
2022-08-28T02:30:00.530Z,14.94
2022-08-28T02:35:02.744Z,14.69
2022-08-28T02:40:05.760Z,14.55
2022-08-28T02:45:10.941Z,14.43
2022-08-28T02:50:16.952Z,14.36
2022-08-28T02:55:20.340Z,14.79
2022-08-28T03:00:25.602Z,14.83
2022-08-28T03:05:28.150Z,14.82
2022-08-28T03:10:31.005Z,14.69
2022-08-28T03:15:33.409Z,14.77
2022-08-28T03:20:35.890Z,14.72
2022-08-28T03:25:39.523Z,14.43
2022-08-28T03:30:41.716Z,14.19
2022-08-28T03:35:44.101Z,14.50
2022-08-28T03:40:47.908Z,14.41
2022-08-28T03:45:59.925Z,14.58
2022-08-28T03:51:07.599Z,14.47
2022-08-28T03:56:16.515Z,14.47
2022-08-28T04:01:20.485Z,14.90
2022-08-28T04:06:23.208Z,14.93
2022-08-28T04:11:25.546Z,14.97
2022-08-28T04:16:28.174Z,14.70
2022-08-28T04:21:30.664Z,14.89
2022-08-28T04:26:36.880Z,14.88
2022-08-28T04:31:39.720Z,15.20
2022-08-28T04:36:42.129Z,15.13
2022-08-28T04:41:44.289Z,15.62
2022-08-28T04:46:48.429Z,15.68
2022-08-28T04:51:55.380Z,15.85
2022-08-28T04:56:57.684Z,15.86
2022-08-28T05:01:59.988Z,16.49
2022-08-28T05:07:02.277Z,16.44
2022-08-28T05:12:06.067Z,16.73
2022-08-28T05:17:09.565Z,17.06
2022-08-28T05:22:11.974Z,17.30
2022-08-28T05:27:14.361Z,17.53
2022-08-28T05:32:17.058Z,18.02
2022-08-28T05:37:19.820Z,19.06
2022-08-28T05:42:22.859Z,21.05
2022-08-28T05:47:32.891Z,25.02
2022-08-28T05:52:37.074Z,27.91
2022-08-28T05:57:40.522Z,29.90
2022-08-28T06:02:42.810Z,31.30
2022-08-28T06:07:45.247Z,32.68
2022-08-28T06:12:47.395Z,32.35
2022-08-28T06:17:49.547Z,33.58
2022-08-28T06:22:51.821Z,34.63
2022-08-28T06:27:54.150Z,36.41
2022-08-28T06:32:56.670Z,35.74
2022-08-28T06:37:59.520Z,36.45
2022-08-28T06:43:01.629Z,37.32
2022-08-28T06:48:04.153Z,37.88
2022-08-28T06:53:09.323Z,38.35
2022-08-28T06:58:13.151Z,37.93
2022-08-28T07:03:15.657Z,38.32
2022-08-28T07:08:20.102Z,38.24
2022-08-28T07:13:23.171Z,36.97
2022-08-28T07:18:25.740Z,35.73
2022-08-28T07:23:29.360Z,35.83
2022-08-28T07:28:31.805Z,35.36
2022-08-28T07:33:34.221Z,35.20
2022-08-28T07:38:36.805Z,35.02
2022-08-28T07:43:57.611Z,35.07
2022-08-28T07:49:01.056Z,35.28
2022-08-28T07:54:04.204Z,35.78
2022-08-28T07:59:07.837Z,36.10
2022-08-28T08:04:14.349Z,36.27
2022-08-28T08:09:19.479Z,36.68
2022-08-28T08:14:21.873Z,36.80
2022-08-28T08:19:24.122Z,36.83
2022-08-28T08:24:28.657Z,36.77
2022-08-28T08:29:35.709Z,37.07
2022-08-28T08:34:42.403Z,36.93
2022-08-28T08:39:44.845Z,37.10
2022-08-28T08:44:48.643Z,37.32
2022-08-28T08:49:58.889Z,37.40
2022-08-28T08:55:23.386Z,37.79
2022-08-28T09:00:26.091Z,37.98
2022-08-28T09:05:41.797Z,38.21
2022-08-28T09:10:51.970Z,37.93
2022-08-28T09:15:54.438Z,37.57
2022-08-28T09:20:59.088Z,37.50
2022-08-28T09:26:04.733Z,37.74
2022-08-28T09:31:16.186Z,38.34
2022-08-28T09:36:32.913Z,38.62
2022-08-28T09:42:24.737Z,38.88
2022-08-28T09:47:46.992Z,38.70
2022-08-28T09:52:51.334Z,37.77
2022-08-28T09:57:54.982Z,37.85
2022-08-28T10:03:09.286Z,38.65
2022-08-28T10:08:23.694Z,38.18
2022-08-28T10:13:39.655Z,38.36
2022-08-28T10:18:46.361Z,37.25
2022-08-28T10:23:58.783Z,37.92
2022-08-28T10:29:25.540Z,38.57
2022-08-28T10:34:43.354Z,37.76
2022-08-28T10:40:00.907Z,38.44
2022-08-28T10:45:13.229Z,38.12
2022-08-28T10:50:21.708Z,38.90
2022-08-28T10:55:36.553Z,38.87
2022-08-28T11:00:43.426Z,38.39
2022-08-28T11:05:54.396Z,37.93
2022-08-28T11:10:59.812Z,37.82
2022-08-28T11:16:12.545Z,38.42
2022-08-28T11:21:44.503Z,38.03
2022-08-28T11:27:07.004Z,38.12
2022-08-28T11:32:50.690Z,38.30
2022-08-28T11:37:55.169Z,37.47
2022-08-28T11:43:16.425Z,37.93
2022-08-28T11:48:37.656Z,36.72
2022-08-28T11:54:03.993Z,36.10
2022-08-28T11:59:37.193Z,35.52
2022-08-28T12:04:43.425Z,34.06
2022-08-28T12:09:48.767Z,34.73
2022-08-28T12:15:07.807Z,34.74
2022-08-28T12:20:39.140Z,33.83
2022-08-28T12:25:44.552Z,33.70
2022-08-28T12:31:08.910Z,33.90
2022-08-28T12:36:18.738Z,34.02
2022-08-28T12:41:24.777Z,34.25
2022-08-28T12:46:36.512Z,34.54
2022-08-28T12:51:38.870Z,34.79
2022-08-28T12:56:41.113Z,34.44
2022-08-28T13:01:44.817Z,34.03
2022-08-28T13:06:47.419Z,34.31
2022-08-28T13:11:51.810Z,34.24
2022-08-28T13:16:54.110Z,34.02
2022-08-28T13:22:02.833Z,33.77
2022-08-28T13:27:13.236Z,33.36
2022-08-28T13:32:18.175Z,32.48
2022-08-28T13:37:44.065Z,32.79
2022-08-28T13:42:47.497Z,33.06
2022-08-28T13:47:49.809Z,33.04
2022-08-28T13:52:52.001Z,32.81
2022-08-28T13:57:55.278Z,32.80
2022-08-28T14:03:16.394Z,32.93
2022-08-28T14:08:18.681Z,32.70
2022-08-28T14:13:23.271Z,32.45
2022-08-28T14:18:26.594Z,31.96
2022-08-28T14:23:29.135Z,31.77
2022-08-28T14:28:31.356Z,31.63
2022-08-28T14:33:34.323Z,31.95
2022-08-28T14:39:06.041Z,31.83
2022-08-28T14:44:09.426Z,31.84
2022-08-28T14:49:13.995Z,31.46
2022-08-28T14:54:19.297Z,31.44
2022-08-28T14:59:26.524Z,31.09
2022-08-28T15:04:38.312Z,30.90
2022-08-28T15:09:42.509Z,30.59
2022-08-28T15:14:55.212Z,30.34
2022-08-28T15:20:00.742Z,30.35
2022-08-28T15:25:03.687Z,30.25
2022-08-28T15:30:06.823Z,30.10
2022-08-28T15:35:09.557Z,30.06
2022-08-28T15:40:30.306Z,29.81
2022-08-28T15:45:37.944Z,29.51
2022-08-28T15:50:41.876Z,28.33
2022-08-28T15:55:47.616Z,28.00
2022-08-28T16:00:50.459Z,27.51
2022-08-28T16:05:53.061Z,27.22
2022-08-28T16:10:55.984Z,26.51
2022-08-28T16:15:58.225Z,26.21
2022-08-28T16:21:04.702Z,25.73
2022-08-28T16:26:08.816Z,25.69
2022-08-28T16:35:56.448Z,25.32
2022-08-28T16:36:35.658Z,24.67
2022-08-28T16:41:39.338Z,24.23
2022-08-28T16:46:46.828Z,24.10
2022-08-28T16:51:49.779Z,23.86
2022-08-28T16:56:52.309Z,23.81
2022-08-28T17:01:54.876Z,23.36
2022-08-28T17:06:57.598Z,23.32
2022-08-28T17:12:00.315Z,22.94
2022-08-28T17:17:02.838Z,22.83
2022-08-28T17:22:23.451Z,22.78
2022-08-28T17:27:30.490Z,22.62
2022-08-28T17:32:33.083Z,22.63
2022-08-28T17:37:37.664Z,22.27
2022-08-28T17:42:40.054Z,21.65
2022-08-28T17:47:43.671Z,21.51
2022-08-28T17:52:46.219Z,21.35
2022-08-28T17:57:49.254Z,20.96
2022-08-28T18:02:52.697Z,21.11
2022-08-28T18:07:55.293Z,20.62
2022-08-28T18:12:57.977Z,20.31
2022-08-28T18:18:00.370Z,20.21
2022-08-28T18:23:03.435Z,20.42
2022-08-28T18:28:06.782Z,20.50
2022-08-28T18:33:10.277Z,20.68
2022-08-28T18:38:14.447Z,20.22
2022-08-28T18:43:20.547Z,20.10
2022-08-28T18:48:23.308Z,19.89
2022-08-28T18:53:25.887Z,19.84
2022-08-28T18:58:28.290Z,19.42
2022-08-28T19:03:31.107Z,19.59
2022-08-28T19:08:36.877Z,19.36
2022-08-28T19:13:43.961Z,19.37
2022-08-28T19:18:47.928Z,19.34
2022-08-28T19:23:55.980Z,19.34
2022-08-28T19:28:58.766Z,19.06
2022-08-28T19:34:01.259Z,18.80
2022-08-28T19:39:04.186Z,18.70
2022-08-28T19:44:07.103Z,18.50
2022-08-28T19:49:09.552Z,18.48
2022-08-28T19:54:14.509Z,18.49
2022-08-28T19:59:16.872Z,18.65
2022-08-28T20:04:19.563Z,18.61
2022-08-28T20:09:21.905Z,18.47
2022-08-28T20:14:24.120Z,18.17
2022-08-28T20:19:26.839Z,17.93
2022-08-28T20:24:29.952Z,18.03
2022-08-28T20:29:34.440Z,18.04
2022-08-28T20:34:38.646Z,17.66
2022-08-28T20:39:43.913Z,17.46
2022-08-28T20:44:46.095Z,17.17
2022-08-28T20:49:48.261Z,17.20
2022-08-28T20:54:50.569Z,16.85
2022-08-28T20:59:54.388Z,16.94
2022-08-28T21:04:59.330Z,16.83
2022-08-28T21:10:07.157Z,16.47
2022-08-28T21:15:13.080Z,16.53
2022-08-28T21:20:16.501Z,16.45
2022-08-28T21:25:21.088Z,16.45
2022-08-28T21:30:23.637Z,16.53
2022-08-28T21:35:32.121Z,16.40
2022-08-28T21:40:35.859Z,16.69
2022-08-28T21:45:38.194Z,16.72
2022-08-28T21:50:43.199Z,16.44
2022-08-28T21:55:53.330Z,16.29
2022-08-28T22:00:59.298Z,16.44
2022-08-28T22:06:01.714Z,15.97
2022-08-28T22:11:04.434Z,15.95
2022-08-28T22:16:07.684Z,15.82
2022-08-28T22:21:34.246Z,15.83
2022-08-28T22:26:36.606Z,16.08
2022-08-28T22:31:45.648Z,16.22
2022-08-28T22:36:48.673Z,16.20
2022-08-28T22:41:51.566Z,16.35
2022-08-28T22:46:53.779Z,16.35
2022-08-28T22:51:56.025Z,16.31
2022-08-28T22:56:58.613Z,16.22
2022-08-28T23:02:01.433Z,16.33
2022-08-28T23:07:05.077Z,15.99
2022-08-28T23:12:08.105Z,15.97
2022-08-28T23:17:10.539Z,15.86
2022-08-28T23:22:13.492Z,15.30
2022-08-28T23:27:35.791Z,15.34
2022-08-28T23:32:38.832Z,15.16
2022-08-28T23:37:45.519Z,15.36
2022-08-28T23:42:52.079Z,15.51
2022-08-28T23:47:54.451Z,15.66
2022-08-28T23:52:56.825Z,15.59
2022-08-28T23:57:59.682Z,15.46
